createdAt,value
2022-12-03T00:00:00.738Z,1027.58
2022-12-03T00:00:19.551Z,1027.61
2022-12-03T00:00:28.948Z,1027.62
2022-12-03T00:00:38.346Z,1027.59
2022-12-03T00:00:47.764Z,1027.64
2022-12-03T00:00:57.169Z,1027.55
2022-12-03T00:01:06.567Z,1027.63
2022-12-03T00:01:15.998Z,1027.59
2022-12-03T00:01:25.399Z,1027.58
2022-12-03T00:01:34.805Z,1027.61
2022-12-03T00:01:44.188Z,1027.60
2022-12-03T00:01:53.590Z,1027.59
2022-12-03T00:02:03.034Z,1027.61
2022-12-03T00:02:12.496Z,1027.57
2022-12-03T00:02:21.885Z,1027.59
2022-12-03T00:02:31.358Z,1027.60
2022-12-03T00:02:40.848Z,1027.59
2022-12-03T00:02:59.559Z,1027.62
2022-12-03T00:03:08.944Z,1027.61
2022-12-03T00:03:18.295Z,1027.58
2022-12-03T00:03:27.782Z,1027.58
2022-12-03T00:03:37.211Z,1027.56
2022-12-03T00:03:46.549Z,1027.56
2022-12-03T00:03:56.025Z,1027.60
2022-12-03T00:04:05.252Z,1027.61
2022-12-03T00:04:14.561Z,1027.63
2022-12-03T00:04:23.953Z,1027.59
2022-12-03T00:04:33.352Z,1027.54
2022-12-03T00:04:42.750Z,1027.58
2022-12-03T00:04:52.489Z,1027.64
2022-12-03T00:05:01.555Z,1027.66
2022-12-03T00:05:10.966Z,1027.63
2022-12-03T00:05:20.351Z,1027.58
2022-12-03T00:05:41.920Z,1027.57
2022-12-03T00:05:49.367Z,1027.57
2022-12-03T00:05:57.990Z,1027.63
2022-12-03T00:06:07.519Z,1027.64
2022-12-03T00:06:16.928Z,1027.61
2022-12-03T00:06:30.140Z,1027.63
2022-12-03T00:06:35.713Z,1027.63
2022-12-03T00:06:45.100Z,1027.65
2022-12-03T00:06:54.507Z,1027.63
2022-12-03T00:07:03.918Z,1027.62
2022-12-03T00:07:13.347Z,1027.60
2022-12-03T00:07:22.755Z,1027.59
2022-12-03T00:07:32.218Z,1027.58
2022-12-03T00:07:41.647Z,1027.62
2022-12-03T00:07:50.998Z,1027.63
2022-12-03T00:08:00.475Z,1027.58
2022-12-03T00:08:19.168Z,1027.59
2022-12-03T00:08:28.560Z,1027.63
2022-12-03T00:08:37.949Z,1027.54
2022-12-03T00:08:47.353Z,1027.62
2022-12-03T00:08:56.736Z,1027.56
2022-12-03T00:09:06.133Z,1027.58
2022-12-03T00:09:15.521Z,1027.60
2022-12-03T00:09:24.914Z,1027.58
2022-12-03T00:09:34.308Z,1027.58
2022-12-03T00:09:43.705Z,1027.62
2022-12-03T00:09:53.112Z,1027.54
2022-12-03T00:10:02.518Z,1027.56
2022-12-03T00:10:11.904Z,1027.52
2022-12-03T00:10:21.320Z,1027.59
2022-12-03T00:10:30.702Z,1027.59
2022-12-03T00:10:49.476Z,1027.54
2022-12-03T00:10:58.940Z,1027.57
2022-12-03T00:11:08.303Z,1027.55
2022-12-03T00:11:17.689Z,1027.55
2022-12-03T00:11:27.111Z,1027.56
2022-12-03T00:11:36.528Z,1027.54
2022-12-03T00:11:45.927Z,1027.57
2022-12-03T00:11:55.318Z,1027.51
2022-12-03T00:12:04.698Z,1027.62
2022-12-03T00:12:14.087Z,1027.54
2022-12-03T00:12:23.500Z,1027.55
2022-12-03T00:12:32.923Z,1027.56
2022-12-03T00:12:42.337Z,1027.55
2022-12-03T00:12:51.723Z,1027.48
2022-12-03T00:13:01.113Z,1027.52
2022-12-03T00:13:10.552Z,1027.56
2022-12-03T00:13:29.328Z,1027.61
2022-12-03T00:13:38.702Z,1027.56
2022-12-03T00:13:48.095Z,1027.54
2022-12-03T00:13:57.494Z,1027.54
2022-12-03T00:14:06.889Z,1027.51
2022-12-03T00:14:16.292Z,1027.51
2022-12-03T00:14:25.677Z,1027.52
2022-12-03T00:14:37.763Z,1027.55
2022-12-03T00:14:45.099Z,1027.54
2022-12-03T00:14:54.165Z,1027.54
2022-12-03T00:15:03.244Z,1027.56
2022-12-03T00:15:12.648Z,1027.55
2022-12-03T00:15:22.084Z,1027.58
2022-12-03T00:15:31.512Z,1027.58
2022-12-03T00:15:40.913Z,1027.53
2022-12-03T00:15:50.332Z,1027.49
2022-12-03T00:16:09.150Z,1027.50
2022-12-03T00:16:18.558Z,1027.51
2022-12-03T00:16:27.937Z,1027.58
2022-12-03T00:16:37.267Z,1027.52
2022-12-03T00:16:46.669Z,1027.54
2022-12-03T00:16:56.061Z,1027.50
2022-12-03T00:17:05.454Z,1027.52
2022-12-03T00:17:14.851Z,1027.52
2022-12-03T00:17:24.250Z,1027.54
2022-12-03T00:17:33.657Z,1027.53
2022-12-03T00:17:43.057Z,1027.50
2022-12-03T00:17:52.496Z,1027.52
2022-12-03T00:18:01.930Z,1027.57
2022-12-03T00:18:11.352Z,1027.52
2022-12-03T00:18:20.753Z,1027.53
2022-12-03T00:18:39.554Z,1027.51
2022-12-03T00:18:48.959Z,1027.48
2022-12-03T00:18:58.345Z,1027.56
2022-12-03T00:19:07.837Z,1027.49
2022-12-03T00:19:17.173Z,1027.51
2022-12-03T00:19:26.548Z,1027.48
2022-12-03T00:19:35.972Z,1027.54
2022-12-03T00:19:45.384Z,1027.51
2022-12-03T00:19:54.787Z,1027.54
2022-12-03T00:20:04.176Z,1027.48
2022-12-03T00:20:13.625Z,1027.46
2022-12-03T00:20:23.027Z,1027.59
2022-12-03T00:20:32.411Z,1027.56
2022-12-03T00:20:41.790Z,1027.56
2022-12-03T00:20:51.202Z,1027.58
2022-12-03T00:21:00.598Z,1027.56
2022-12-03T00:21:19.397Z,1027.49
2022-12-03T00:21:28.780Z,1027.55
2022-12-03T00:21:38.200Z,1027.57
2022-12-03T00:21:47.599Z,1027.50
2022-12-03T00:21:56.985Z,1027.48
2022-12-03T00:22:06.408Z,1027.50
2022-12-03T00:22:15.831Z,1027.59
2022-12-03T00:22:25.243Z,1027.51
2022-12-03T00:22:34.680Z,1027.55
2022-12-03T00:22:44.088Z,1027.47
2022-12-03T00:22:53.494Z,1027.50
2022-12-03T00:23:02.898Z,1027.44
2022-12-03T00:23:12.314Z,1027.49
2022-12-03T00:23:21.757Z,1027.48
2022-12-03T00:23:31.202Z,1027.48
2022-12-03T00:23:42.473Z,1027.54
2022-12-03T00:23:59.430Z,1027.58
2022-12-03T00:24:08.840Z,1027.48
2022-12-03T00:24:18.242Z,1027.51
2022-12-03T00:24:27.637Z,1027.53
2022-12-03T00:24:37.037Z,1027.55
2022-12-03T00:24:46.456Z,1027.58
2022-12-03T00:24:56.137Z,1027.55
2022-12-03T00:25:05.253Z,1027.57
2022-12-03T00:25:14.658Z,1027.63
2022-12-03T00:25:24.087Z,1027.53
2022-12-03T00:25:33.510Z,1027.54
2022-12-03T00:25:42.916Z,1027.52
2022-12-03T00:25:52.296Z,1027.58
2022-12-03T00:26:01.728Z,1027.57
2022-12-03T00:26:11.098Z,1027.56
2022-12-03T00:26:20.499Z,1027.61
2022-12-03T00:26:39.299Z,1027.51
2022-12-03T00:26:48.701Z,1027.56
2022-12-03T00:26:58.099Z,1027.56
2022-12-03T00:27:07.496Z,1027.53
2022-12-03T00:27:16.904Z,1027.58
2022-12-03T00:27:26.313Z,1027.53
2022-12-03T00:27:35.723Z,1027.57
2022-12-03T00:27:45.120Z,1027.60
2022-12-03T00:27:54.525Z,1027.54
2022-12-03T00:28:03.942Z,1027.58
2022-12-03T00:28:13.374Z,1027.61
2022-12-03T00:28:22.794Z,1027.63
2022-12-03T00:28:32.172Z,1027.61
2022-12-03T00:28:41.576Z,1027.58
2022-12-03T00:28:50.988Z,1027.61
2022-12-03T00:29:00.412Z,1027.60
2022-12-03T00:29:19.193Z,1027.57
2022-12-03T00:29:28.596Z,1027.61
2022-12-03T00:29:38.043Z,1027.60
2022-12-03T00:29:47.434Z,1027.55
2022-12-03T00:29:56.819Z,1027.60
2022-12-03T00:30:06.225Z,1027.58
2022-12-03T00:30:15.638Z,1027.57
2022-12-03T00:30:25.043Z,1027.60
2022-12-03T00:30:34.440Z,1027.56
2022-12-03T00:30:43.906Z,1027.61
2022-12-03T00:30:53.417Z,1027.54
2022-12-03T00:31:02.758Z,1027.54
2022-12-03T00:31:12.136Z,1027.57
2022-12-03T00:31:21.715Z,1027.54
2022-12-03T00:31:31.039Z,1027.56
2022-12-03T00:31:40.426Z,1027.57
2022-12-03T00:31:59.195Z,1027.59
2022-12-03T00:32:08.624Z,1027.59
2022-12-03T00:32:18.044Z,1027.57
2022-12-03T00:32:27.441Z,1027.55
2022-12-03T00:32:36.881Z,1027.55
2022-12-03T00:32:46.304Z,1027.58
2022-12-03T00:32:55.727Z,1027.54
2022-12-03T00:33:05.114Z,1027.52
2022-12-03T00:33:14.528Z,1027.54
2022-12-03T00:33:23.939Z,1027.56
2022-12-03T00:33:33.336Z,1027.47
2022-12-03T00:33:42.744Z,1027.54
2022-12-03T00:33:52.162Z,1027.52
2022-12-03T00:34:01.568Z,1027.52
2022-12-03T00:34:10.957Z,1027.46
2022-12-03T00:34:20.358Z,1027.48
2022-12-03T00:34:39.172Z,1027.57
2022-12-03T00:34:48.596Z,1027.51
2022-12-03T00:34:57.978Z,1027.53
2022-12-03T00:35:07.377Z,1027.51
2022-12-03T00:35:16.811Z,1027.60
2022-12-03T00:35:26.219Z,1027.58
2022-12-03T00:35:35.619Z,1027.53
2022-12-03T00:35:44.995Z,1027.54
2022-12-03T00:35:54.406Z,1027.51
2022-12-03T00:36:03.800Z,1027.50
2022-12-03T00:36:13.198Z,1027.49
2022-12-03T00:36:22.592Z,1027.58
2022-12-03T00:36:31.983Z,1027.48
2022-12-03T00:36:41.384Z,1027.45
2022-12-03T00:36:50.784Z,1027.52
2022-12-03T00:37:09.583Z,1027.45
2022-12-03T00:37:18.985Z,1027.47
2022-12-03T00:37:28.379Z,1027.56
2022-12-03T00:37:37.799Z,1027.50
2022-12-03T00:37:47.196Z,1027.48
2022-12-03T00:37:56.577Z,1027.47
2022-12-03T00:38:05.963Z,1027.53
2022-12-03T00:38:15.346Z,1027.53
2022-12-03T00:38:24.760Z,1027.49
2022-12-03T00:38:34.155Z,1027.53
2022-12-03T00:38:43.538Z,1027.48
2022-12-03T00:38:52.940Z,1027.52
2022-12-03T00:39:02.321Z,1027.52
2022-12-03T00:39:11.716Z,1027.50
2022-12-03T00:39:21.123Z,1027.53
2022-12-03T00:39:30.512Z,1027.58
2022-12-03T00:39:49.301Z,1027.50
2022-12-03T00:39:58.706Z,1027.51
2022-12-03T00:40:08.119Z,1027.51
2022-12-03T00:40:17.532Z,1027.53
2022-12-03T00:40:26.935Z,1027.57
2022-12-03T00:40:36.363Z,1027.55
2022-12-03T00:40:45.754Z,1027.53
2022-12-03T00:40:55.177Z,1027.52
2022-12-03T00:41:04.588Z,1027.52
2022-12-03T00:41:13.969Z,1027.50
2022-12-03T00:41:23.371Z,1027.59
2022-12-03T00:41:32.790Z,1027.60
2022-12-03T00:41:42.169Z,1027.54
2022-12-03T00:41:51.533Z,1027.53
2022-12-03T00:42:00.929Z,1027.49
2022-12-03T00:42:10.309Z,1027.49
2022-12-03T00:42:29.141Z,1027.47
2022-12-03T00:42:38.555Z,1027.55
2022-12-03T00:42:47.952Z,1027.49
2022-12-03T00:42:57.344Z,1027.51
2022-12-03T00:43:06.747Z,1027.52
2022-12-03T00:43:16.135Z,1027.50
2022-12-03T00:43:25.527Z,1027.50
2022-12-03T00:43:34.944Z,1027.51
2022-12-03T00:43:44.472Z,1027.48
2022-12-03T00:43:53.849Z,1027.48
2022-12-03T00:44:03.274Z,1027.49
2022-12-03T00:44:12.665Z,1027.49
2022-12-03T00:44:22.063Z,1027.52
2022-12-03T00:44:31.456Z,1027.49
2022-12-03T00:44:40.853Z,1027.49
2022-12-03T00:44:50.420Z,1027.55
2022-12-03T00:45:09.081Z,1027.49
2022-12-03T00:45:18.473Z,1027.43
2022-12-03T00:45:27.843Z,1027.50
2022-12-03T00:45:37.247Z,1027.46
2022-12-03T00:45:46.660Z,1027.52
2022-12-03T00:45:56.459Z,1027.47
2022-12-03T00:46:05.708Z,1027.50
2022-12-03T00:46:20.913Z,1027.47
2022-12-03T00:46:24.500Z,1027.49
2022-12-03T00:46:33.903Z,1027.52
2022-12-03T00:46:43.252Z,1027.49
2022-12-03T00:46:52.683Z,1027.49
2022-12-03T00:47:02.066Z,1027.41
2022-12-03T00:47:11.561Z,1027.42
2022-12-03T00:47:20.839Z,1027.45
2022-12-03T00:47:30.226Z,1027.42
2022-12-03T00:47:49.046Z,1027.46
2022-12-03T00:47:58.460Z,1027.46
2022-12-03T00:48:07.840Z,1027.41
2022-12-03T00:48:17.207Z,1027.45
2022-12-03T00:48:26.598Z,1027.40
2022-12-03T00:48:35.990Z,1027.43
2022-12-03T00:48:45.390Z,1027.47
2022-12-03T00:48:54.805Z,1027.42
2022-12-03T00:49:04.199Z,1027.45
2022-12-03T00:49:13.612Z,1027.41
2022-12-03T00:49:23.026Z,1027.46
2022-12-03T00:49:32.472Z,1027.44
2022-12-03T00:49:41.880Z,1027.45
2022-12-03T00:49:51.362Z,1027.49
2022-12-03T00:50:00.756Z,1027.38
2022-12-03T00:50:19.539Z,1027.44
2022-12-03T00:50:28.971Z,1027.45
2022-12-03T00:50:38.402Z,1027.43
2022-12-03T00:50:47.799Z,1027.47
2022-12-03T00:50:57.213Z,1027.44
2022-12-03T00:51:06.607Z,1027.40
2022-12-03T00:51:16.020Z,1027.43
2022-12-03T00:51:25.466Z,1027.40
2022-12-03T00:51:34.859Z,1027.37
2022-12-03T00:51:44.278Z,1027.42
2022-12-03T00:51:53.711Z,1027.35
2022-12-03T00:52:03.138Z,1027.36
2022-12-03T00:52:12.557Z,1027.41
2022-12-03T00:52:21.983Z,1027.48
2022-12-03T00:52:31.761Z,1027.41
2022-12-03T00:52:41.206Z,1027.39
2022-12-03T00:52:50.604Z,1027.40
2022-12-03T00:53:09.479Z,1027.43
2022-12-03T00:53:18.881Z,1027.42
2022-12-03T00:53:28.302Z,1027.44
2022-12-03T00:53:37.726Z,1027.46
2022-12-03T00:53:47.159Z,1027.47
2022-12-03T00:53:56.570Z,1027.43
2022-12-03T00:54:05.969Z,1027.47
2022-12-03T00:54:15.375Z,1027.40
2022-12-03T00:54:30.206Z,1027.46
2022-12-03T00:54:34.193Z,1027.41
2022-12-03T00:54:43.595Z,1027.38
2022-12-03T00:54:53.412Z,1027.46
2022-12-03T00:55:02.392Z,1027.40
2022-12-03T00:55:11.785Z,1027.40
2022-12-03T00:55:21.178Z,1027.41
2022-12-03T00:55:30.594Z,1027.46
2022-12-03T00:55:49.406Z,1027.44
2022-12-03T00:55:58.804Z,1027.45
2022-12-03T00:56:08.226Z,1027.47
2022-12-03T00:56:17.623Z,1027.46
2022-12-03T00:56:27.047Z,1027.49
2022-12-03T00:56:36.473Z,1027.41
2022-12-03T00:56:45.897Z,1027.42
2022-12-03T00:56:55.294Z,1027.42
2022-12-03T00:57:04.695Z,1027.46
2022-12-03T00:57:14.090Z,1027.39
2022-12-03T00:57:23.509Z,1027.44
2022-12-03T00:57:32.921Z,1027.41
2022-12-03T00:57:42.357Z,1027.39
2022-12-03T00:57:51.739Z,1027.41
2022-12-03T00:58:01.148Z,1027.45
2022-12-03T00:58:10.544Z,1027.40
2022-12-03T00:58:29.394Z,1027.42
2022-12-03T00:58:38.791Z,1027.41
2022-12-03T00:58:48.199Z,1027.41
2022-12-03T00:58:57.610Z,1027.38
2022-12-03T00:59:07.037Z,1027.37
2022-12-03T00:59:16.459Z,1027.34
2022-12-03T00:59:25.887Z,1027.33
2022-12-03T00:59:35.289Z,1027.38
2022-12-03T00:59:44.701Z,1027.38
2022-12-03T00:59:54.105Z,1027.36
2022-12-03T01:00:03.500Z,1027.36
2022-12-03T01:00:12.914Z,1027.37
2022-12-03T01:00:22.312Z,1027.37
2022-12-03T01:00:31.710Z,1027.30
2022-12-03T01:00:41.198Z,1027.36
2022-12-03T01:00:50.618Z,1027.40
2022-12-03T01:01:09.442Z,1027.40
2022-12-03T01:01:18.924Z,1027.39
2022-12-03T01:01:28.315Z,1027.34
2022-12-03T01:01:37.688Z,1027.42
2022-12-03T01:01:47.078Z,1027.38
2022-12-03T01:01:56.591Z,1027.37
2022-12-03T01:02:05.996Z,1027.41
2022-12-03T01:02:15.460Z,1027.44
2022-12-03T01:02:24.686Z,1027.38
2022-12-03T01:02:34.093Z,1027.40
2022-12-03T01:02:43.540Z,1027.38
2022-12-03T01:02:52.933Z,1027.39
2022-12-03T01:03:02.332Z,1027.42
2022-12-03T01:03:11.772Z,1027.44
2022-12-03T01:03:21.177Z,1027.51
2022-12-03T01:03:30.590Z,1027.41
2022-12-03T01:03:49.383Z,1027.46
2022-12-03T01:03:58.800Z,1027.46
2022-12-03T01:04:08.318Z,1027.51
2022-12-03T01:04:17.713Z,1027.44
2022-12-03T01:04:27.135Z,1027.40
2022-12-03T01:04:36.506Z,1027.44
2022-12-03T01:04:45.882Z,1027.48
2022-12-03T01:04:55.663Z,1027.49
2022-12-03T01:05:04.710Z,1027.46
2022-12-03T01:05:14.197Z,1027.44
2022-12-03T01:05:23.502Z,1027.47
2022-12-03T01:05:32.880Z,1027.45
2022-12-03T01:05:42.269Z,1027.45
2022-12-03T01:05:51.667Z,1027.44
2022-12-03T01:06:01.084Z,1027.43
2022-12-03T01:06:10.488Z,1027.42
2022-12-03T01:06:29.304Z,1027.50
2022-12-03T01:06:38.708Z,1027.47
2022-12-03T01:06:48.121Z,1027.48
2022-12-03T01:06:57.543Z,1027.45
2022-12-03T01:07:06.948Z,1027.47
2022-12-03T01:07:16.374Z,1027.47
2022-12-03T01:07:25.863Z,1027.46
2022-12-03T01:07:35.244Z,1027.48
2022-12-03T01:07:44.767Z,1027.44
2022-12-03T01:07:54.102Z,1027.39
2022-12-03T01:08:03.621Z,1027.45
2022-12-03T01:08:12.939Z,1027.46
2022-12-03T01:08:22.264Z,1027.53
2022-12-03T01:08:31.669Z,1027.45
2022-12-03T01:08:41.143Z,1027.44
2022-12-03T01:08:50.547Z,1027.41
2022-12-03T01:09:09.351Z,1027.45
2022-12-03T01:09:18.756Z,1027.45
2022-12-03T01:09:28.171Z,1027.47
2022-12-03T01:09:37.583Z,1027.44
2022-12-03T01:09:46.983Z,1027.49
2022-12-03T01:09:56.401Z,1027.46
2022-12-03T01:10:05.811Z,1027.44
2022-12-03T01:10:15.208Z,1027.44
2022-12-03T01:10:24.603Z,1027.38
2022-12-03T01:10:33.997Z,1027.39
2022-12-03T01:10:43.391Z,1027.49
2022-12-03T01:10:52.808Z,1027.48
2022-12-03T01:11:02.208Z,1027.39
2022-12-03T01:11:11.640Z,1027.44
2022-12-03T01:11:21.038Z,1027.44
2022-12-03T01:11:30.436Z,1027.49
2022-12-03T01:11:49.240Z,1027.47
2022-12-03T01:11:58.621Z,1027.49
2022-12-03T01:12:08.040Z,1027.43
2022-12-03T01:12:17.447Z,1027.45
2022-12-03T01:12:26.842Z,1027.32
2022-12-03T01:12:36.255Z,1027.41
2022-12-03T01:12:45.684Z,1027.46
2022-12-03T01:12:55.082Z,1027.47
2022-12-03T01:13:04.528Z,1027.41
2022-12-03T01:13:13.926Z,1027.43
2022-12-03T01:13:23.321Z,1027.44
2022-12-03T01:13:32.729Z,1027.46
2022-12-03T01:13:42.146Z,1027.44
2022-12-03T01:13:51.565Z,1027.36
2022-12-03T01:14:00.974Z,1027.33
2022-12-03T01:14:10.396Z,1027.41
2022-12-03T01:14:29.192Z,1027.41
2022-12-03T01:14:38.578Z,1027.42
2022-12-03T01:14:47.977Z,1027.37
2022-12-03T01:14:57.411Z,1027.39
2022-12-03T01:15:06.811Z,1027.45
2022-12-03T01:15:16.228Z,1027.36
2022-12-03T01:15:25.643Z,1027.42
2022-12-03T01:15:35.159Z,1027.39
2022-12-03T01:15:44.536Z,1027.40
2022-12-03T01:15:53.920Z,1027.45
2022-12-03T01:16:03.323Z,1027.39
2022-12-03T01:16:12.764Z,1027.40
2022-12-03T01:16:22.181Z,1027.39
2022-12-03T01:16:31.593Z,1027.42
2022-12-03T01:16:40.941Z,1027.42
2022-12-03T01:16:50.360Z,1027.43
2022-12-03T01:17:09.222Z,1027.39
2022-12-03T01:17:18.605Z,1027.42
2022-12-03T01:17:27.977Z,1027.42
2022-12-03T01:17:37.343Z,1027.45
2022-12-03T01:17:46.766Z,1027.44
2022-12-03T01:17:56.157Z,1027.36
2022-12-03T01:18:05.557Z,1027.42
2022-12-03T01:18:14.964Z,1027.42
2022-12-03T01:18:24.337Z,1027.43
2022-12-03T01:18:33.774Z,1027.36
2022-12-03T01:18:43.183Z,1027.40
2022-12-03T01:18:52.564Z,1027.36
2022-12-03T01:19:01.984Z,1027.33
2022-12-03T01:19:11.391Z,1027.38
2022-12-03T01:19:20.794Z,1027.39
2022-12-03T01:19:43.559Z,1027.35
2022-12-03T01:19:48.974Z,1027.40
2022-12-03T01:19:58.358Z,1027.37
2022-12-03T01:20:07.755Z,1027.42
2022-12-03T01:20:17.164Z,1027.40
2022-12-03T01:20:26.556Z,1027.38
2022-12-03T01:20:35.940Z,1027.38
2022-12-03T01:20:45.344Z,1027.37
2022-12-03T01:20:54.733Z,1027.37
2022-12-03T01:21:04.132Z,1027.32
2022-12-03T01:21:13.535Z,1027.40
2022-12-03T01:21:22.908Z,1027.42
2022-12-03T01:21:32.299Z,1027.35
2022-12-03T01:21:41.714Z,1027.37
2022-12-03T01:21:51.100Z,1027.40
2022-12-03T01:22:00.519Z,1027.37
2022-12-03T01:22:19.380Z,1027.43
2022-12-03T01:22:28.779Z,1027.39
2022-12-03T01:22:38.172Z,1027.38
2022-12-03T01:22:47.614Z,1027.34
2022-12-03T01:22:57.015Z,1027.37
2022-12-03T01:23:06.438Z,1027.44
2022-12-03T01:23:15.842Z,1027.38
2022-12-03T01:23:25.263Z,1027.43
2022-12-03T01:23:34.675Z,1027.37
2022-12-03T01:23:44.093Z,1027.34
2022-12-03T01:23:53.513Z,1027.35
2022-12-03T01:24:02.927Z,1027.31
2022-12-03T01:24:12.349Z,1027.42
2022-12-03T01:24:21.740Z,1027.37
2022-12-03T01:24:31.122Z,1027.35
2022-12-03T01:24:40.533Z,1027.40
2022-12-03T01:24:59.345Z,1027.39
2022-12-03T01:25:08.741Z,1027.36
2022-12-03T01:25:18.151Z,1027.38
2022-12-03T01:25:27.559Z,1027.42
2022-12-03T01:25:36.950Z,1027.36
2022-12-03T01:25:46.327Z,1027.44
2022-12-03T01:25:55.710Z,1027.39
2022-12-03T01:26:05.124Z,1027.42
2022-12-03T01:26:14.538Z,1027.36
2022-12-03T01:26:23.970Z,1027.39
2022-12-03T01:26:33.326Z,1027.41
2022-12-03T01:26:42.737Z,1027.38
2022-12-03T01:26:52.149Z,1027.37
2022-12-03T01:27:01.618Z,1027.36
2022-12-03T01:27:11.021Z,1027.39
2022-12-03T01:27:20.466Z,1027.37
2022-12-03T01:27:39.274Z,1027.41
2022-12-03T01:27:48.713Z,1027.38
2022-12-03T01:27:58.116Z,1027.35
2022-12-03T01:28:07.510Z,1027.36
2022-12-03T01:28:16.895Z,1027.36
2022-12-03T01:28:26.434Z,1027.34
2022-12-03T01:28:35.963Z,1027.33
2022-12-03T01:28:45.356Z,1027.31
2022-12-03T01:28:54.786Z,1027.34
2022-12-03T01:29:04.235Z,1027.37
2022-12-03T01:29:13.617Z,1027.33
2022-12-03T01:29:23.026Z,1027.40
2022-12-03T01:29:32.430Z,1027.36
2022-12-03T01:29:41.921Z,1027.30
2022-12-03T01:29:51.335Z,1027.36
2022-12-03T01:30:00.734Z,1027.44
2022-12-03T01:30:19.544Z,1027.37
2022-12-03T01:30:28.988Z,1027.31
2022-12-03T01:30:38.382Z,1027.35
2022-12-03T01:30:47.807Z,1027.33
2022-12-03T01:30:57.235Z,1027.34
2022-12-03T01:31:06.614Z,1027.32
2022-12-03T01:31:16.111Z,1027.30
2022-12-03T01:31:25.627Z,1027.36
2022-12-03T01:31:34.856Z,1027.32
2022-12-03T01:31:44.290Z,1027.33
2022-12-03T01:31:53.633Z,1027.35
2022-12-03T01:32:03.288Z,1027.37
2022-12-03T01:32:12.686Z,1027.31
2022-12-03T01:32:22.108Z,1027.37
2022-12-03T01:32:31.493Z,1027.36
2022-12-03T01:32:40.888Z,1027.34
2022-12-03T01:32:50.357Z,1027.32
2022-12-03T01:33:09.175Z,1027.33
2022-12-03T01:33:18.580Z,1027.41
2022-12-03T01:33:27.989Z,1027.29
2022-12-03T01:33:37.370Z,1027.29
2022-12-03T01:33:46.779Z,1027.34
2022-12-03T01:33:56.183Z,1027.32
2022-12-03T01:34:05.612Z,1027.27
2022-12-03T01:34:14.999Z,1027.32
2022-12-03T01:34:24.383Z,1027.29
2022-12-03T01:34:33.796Z,1027.31
2022-12-03T01:34:43.194Z,1027.28
2022-12-03T01:34:53.014Z,1027.31
2022-12-03T01:35:02.000Z,1027.29
2022-12-03T01:35:11.433Z,1027.30
2022-12-03T01:35:20.885Z,1027.26
2022-12-03T01:35:30.285Z,1027.32
2022-12-03T01:35:49.083Z,1027.27
2022-12-03T01:35:58.480Z,1027.30
2022-12-03T01:36:07.881Z,1027.24
2022-12-03T01:36:17.270Z,1027.27
2022-12-03T01:36:26.706Z,1027.32
2022-12-03T01:36:36.119Z,1027.29
2022-12-03T01:36:45.525Z,1027.28
2022-12-03T01:36:54.918Z,1027.22
2022-12-03T01:37:04.314Z,1027.29
2022-12-03T01:37:13.761Z,1027.22
2022-12-03T01:37:23.164Z,1027.28
2022-12-03T01:37:32.560Z,1027.26
2022-12-03T01:37:41.957Z,1027.25
2022-12-03T01:37:51.420Z,1027.28
2022-12-03T01:38:00.896Z,1027.27
2022-12-03T01:38:10.305Z,1027.27
2022-12-03T01:38:29.129Z,1027.21
2022-12-03T01:38:38.552Z,1027.19
2022-12-03T01:38:47.951Z,1027.29
2022-12-03T01:38:57.374Z,1027.24
2022-12-03T01:39:06.781Z,1027.20
2022-12-03T01:39:16.181Z,1027.26
2022-12-03T01:39:25.591Z,1027.19
2022-12-03T01:39:34.993Z,1027.18
2022-12-03T01:39:44.392Z,1027.23
2022-12-03T01:39:53.798Z,1027.18
2022-12-03T01:40:03.217Z,1027.24
2022-12-03T01:40:12.674Z,1027.18
2022-12-03T01:40:22.095Z,1027.19
2022-12-03T01:40:31.495Z,1027.17
2022-12-03T01:40:40.890Z,1027.18
2022-12-03T01:40:50.299Z,1027.29
2022-12-03T01:41:11.931Z,1027.21
2022-12-03T01:41:18.520Z,1027.19
2022-12-03T01:41:28.018Z,1027.24
2022-12-03T01:41:37.372Z,1027.31
2022-12-03T01:41:46.761Z,1027.22
2022-12-03T01:41:56.207Z,1027.22
2022-12-03T01:42:05.604Z,1027.19
2022-12-03T01:42:15.005Z,1027.16
2022-12-03T01:42:24.412Z,1027.24
2022-12-03T01:42:33.808Z,1027.23
2022-12-03T01:42:43.215Z,1027.13
2022-12-03T01:42:52.648Z,1027.13
2022-12-03T01:43:02.076Z,1027.19
2022-12-03T01:43:11.526Z,1027.16
2022-12-03T01:43:20.919Z,1027.20
2022-12-03T01:43:30.336Z,1027.18
2022-12-03T01:43:49.151Z,1027.21
2022-12-03T01:43:58.554Z,1027.21
2022-12-03T01:44:07.944Z,1027.20
2022-12-03T01:44:17.353Z,1027.20
2022-12-03T01:44:26.745Z,1027.27
2022-12-03T01:44:36.123Z,1027.21
2022-12-03T01:44:45.515Z,1027.21
2022-12-03T01:44:55.253Z,1027.21
2022-12-03T01:45:04.288Z,1027.17
2022-12-03T01:45:13.675Z,1027.22
2022-12-03T01:45:23.120Z,1027.21
2022-12-03T01:45:32.571Z,1027.20
2022-12-03T01:45:41.960Z,1027.22
2022-12-03T01:45:51.428Z,1027.21
2022-12-03T01:46:00.805Z,1027.28
2022-12-03T01:46:10.280Z,1027.23
2022-12-03T01:46:29.073Z,1027.24
2022-12-03T01:46:38.460Z,1027.24
2022-12-03T01:46:47.880Z,1027.21
2022-12-03T01:46:57.255Z,1027.22
2022-12-03T01:47:06.660Z,1027.16
2022-12-03T01:47:16.003Z,1027.15
2022-12-03T01:47:25.390Z,1027.22
2022-12-03T01:47:34.817Z,1027.19
2022-12-03T01:47:44.201Z,1027.21
2022-12-03T01:47:53.629Z,1027.22
2022-12-03T01:48:03.007Z,1027.23
2022-12-03T01:48:12.405Z,1027.26
2022-12-03T01:48:21.807Z,1027.28
2022-12-03T01:48:31.186Z,1027.24
2022-12-03T01:48:40.586Z,1027.29
2022-12-03T01:48:59.400Z,1027.29
2022-12-03T01:49:08.817Z,1027.29
2022-12-03T01:49:18.205Z,1027.25
2022-12-03T01:49:27.618Z,1027.28
2022-12-03T01:49:37.036Z,1027.31
2022-12-03T01:49:46.431Z,1027.24
2022-12-03T01:49:55.830Z,1027.28
2022-12-03T01:50:05.304Z,1027.23
2022-12-03T01:50:14.693Z,1027.19
2022-12-03T01:50:24.101Z,1027.24
2022-12-03T01:50:33.639Z,1027.21
2022-12-03T01:50:42.920Z,1027.25
2022-12-03T01:50:52.294Z,1027.27
2022-12-03T01:51:01.708Z,1027.27
2022-12-03T01:51:11.112Z,1027.21
2022-12-03T01:51:20.584Z,1027.33
2022-12-03T01:51:39.396Z,1027.35
2022-12-03T01:51:48.792Z,1027.23
2022-12-03T01:51:58.164Z,1027.25
2022-12-03T01:52:07.552Z,1027.29
2022-12-03T01:52:16.991Z,1027.27
2022-12-03T01:52:26.382Z,1027.30
2022-12-03T01:52:35.798Z,1027.28
2022-12-03T01:52:45.186Z,1027.23
2022-12-03T01:52:54.607Z,1027.21
2022-12-03T01:53:04.013Z,1027.22
2022-12-03T01:53:13.397Z,1027.24
2022-12-03T01:53:22.788Z,1027.22
2022-12-03T01:53:32.164Z,1027.25
2022-12-03T01:53:41.559Z,1027.22
2022-12-03T01:53:50.950Z,1027.21
2022-12-03T01:54:00.361Z,1027.14
2022-12-03T01:54:19.229Z,1027.26
2022-12-03T01:54:28.640Z,1027.23
2022-12-03T01:54:38.031Z,1027.16
2022-12-03T01:54:47.430Z,1027.18
2022-12-03T01:54:56.865Z,1027.24
2022-12-03T01:55:06.248Z,1027.20
2022-12-03T01:55:15.622Z,1027.17
2022-12-03T01:55:25.002Z,1027.23
2022-12-03T01:55:34.412Z,1027.17
2022-12-03T01:55:48.404Z,1027.18
2022-12-03T01:55:53.231Z,1027.18
2022-12-03T01:56:02.638Z,1027.19
2022-12-03T01:56:12.097Z,1027.23
2022-12-03T01:56:21.508Z,1027.21
2022-12-03T01:56:30.949Z,1027.21
2022-12-03T01:56:40.329Z,1027.23
2022-12-03T01:56:59.142Z,1027.16
2022-12-03T01:57:08.547Z,1027.23
2022-12-03T01:57:17.934Z,1027.21
2022-12-03T01:57:27.313Z,1027.18
2022-12-03T01:57:36.706Z,1027.15
2022-12-03T01:57:46.109Z,1027.12
2022-12-03T01:57:55.520Z,1027.21
2022-12-03T01:58:04.970Z,1027.18
2022-12-03T01:58:14.331Z,1027.17
2022-12-03T01:58:23.737Z,1027.17
2022-12-03T01:58:33.143Z,1027.18
2022-12-03T01:58:42.531Z,1027.21
2022-12-03T01:58:51.919Z,1027.18
2022-12-03T01:59:01.332Z,1027.19
2022-12-03T01:59:10.710Z,1027.18
2022-12-03T01:59:29.512Z,1027.17
2022-12-03T01:59:38.917Z,1027.19
2022-12-03T01:59:48.305Z,1027.15
2022-12-03T01:59:57.700Z,1027.17
2022-12-03T02:00:07.088Z,1027.12
2022-12-03T02:00:16.494Z,1027.22
2022-12-03T02:00:25.883Z,1027.20
2022-12-03T02:00:35.270Z,1027.17
2022-12-03T02:00:44.734Z,1027.16
2022-12-03T02:00:54.150Z,1027.17